sensor_id;sensor_type;location;lat;lon;timestamp;temperature;humidity
11304;DHT22;5707;49.588;12.148;2022-07-23T00:02:25;17.70;99.90
11304;DHT22;5707;49.588;12.148;2022-07-23T00:05:05;17.60;99.90
11304;DHT22;5707;49.588;12.148;2022-07-23T00:07:45;17.60;99.90
11304;DHT22;5707;49.588;12.148;2022-07-23T00:10:25;17.60;99.90
11304;DHT22;5707;49.588;12.148;2022-07-23T00:13:05;17.60;99.90
11304;DHT22;5707;49.588;12.148;2022-07-23T00:15:44;17.70;99.90
11304;DHT22;5707;49.588;12.148;2022-07-23T00:18:26;17.80;99.90
11304;DHT22;5707;49.588;12.148;2022-07-23T00:21:07;17.90;99.90
11304;DHT22;5707;49.588;12.148;2022-07-23T00:23:47;17.90;99.90
11304;DHT22;5707;49.588;12.148;2022-07-23T00:26:27;17.90;99.90
11304;DHT22;5707;49.588;12.148;2022-07-23T00:29:07;17.80;99.90
11304;DHT22;5707;49.588;12.148;2022-07-23T00:31:47;17.70;99.90
11304;DHT22;5707;49.588;12.148;2022-07-23T00:34:26;17.60;99.90
11304;DHT22;5707;49.588;12.148;2022-07-23T00:37:06;17.50;99.90
11304;DHT22;5707;49.588;12.148;2022-07-23T00:39:46;17.50;99.90
11304;DHT22;5707;49.588;12.148;2022-07-23T00:42:26;17.60;99.90
11304;DHT22;5707;49.588;12.148;2022-07-23T00:45:06;17.50;99.90
11304;DHT22;5707;49.588;12.148;2022-07-23T00:47:47;17.60;99.90
11304;DHT22;5707;49.588;12.148;2022-07-23T00:50:27;17.50;99.90
11304;DHT22;5707;49.588;12.148;2022-07-23T00:53:07;17.70;99.90
11304;DHT22;5707;49.588;12.148;2022-07-23T00:55:48;18.20;99.90
11304;DHT22;5707;49.588;12.148;2022-07-23T00:58:28;18.70;99.90
11304;DHT22;5707;49.588;12.148;2022-07-23T01:01:08;18.80;99.90
11304;DHT22;5707;49.588;12.148;2022-07-23T01:03:48;18.10;99.90
11304;DHT22;5707;49.588;12.148;2022-07-23T01:06:28;17.60;99.90
11304;DHT22;5707;49.588;12.148;2022-07-23T01:09:07;17.30;99.90
11304;DHT22;5707;49.588;12.148;2022-07-23T01:11:47;17.20;99.90
11304;DHT22;5707;49.588;12.148;2022-07-23T01:14:27;17.10;99.90
11304;DHT22;5707;49.588;12.148;2022-07-23T01:17:07;17.00;99.90
11304;DHT22;5707;49.588;12.148;2022-07-23T01:19:47;16.90;99.90
11304;DHT22;5707;49.588;12.148;2022-07-23T01:22:28;16.80;99.90
11304;DHT22;5707;49.588;12.148;2022-07-23T01:25:08;16.80;99.90
11304;DHT22;5707;49.588;12.148;2022-07-23T01:27:52;16.70;99.90
11304;DHT22;5707;49.588;12.148;2022-07-23T01:30:32;16.60;99.90
11304;DHT22;5707;49.588;12.148;2022-07-23T01:33:15;16.60;99.90
11304;DHT22;5707;49.588;12.148;2022-07-23T01:35:55;16.60;99.90
11304;DHT22;5707;49.588;12.148;2022-07-23T01:38:37;16.60;99.90
11304;DHT22;5707;49.588;12.148;2022-07-23T01:41:17;16.80;99.90
11304;DHT22;5707;49.588;12.148;2022-07-23T01:43:56;16.80;99.90
11304;DHT22;5707;49.588;12.148;2022-07-23T01:46:39;16.70;99.90
11304;DHT22;5707;49.588;12.148;2022-07-23T01:49:19;16.70;99.90
11304;DHT22;5707;49.588;12.148;2022-07-23T01:52:18;16.70;99.90
11304;DHT22;5707;49.588;12.148;2022-07-23T01:55:01;16.70;99.90
11304;DHT22;5707;49.588;12.148;2022-07-23T01:57:41;16.70;99.90
11304;DHT22;5707;49.588;12.148;2022-07-23T02:00:23;16.80;99.90
11304;DHT22;5707;49.588;12.148;2022-07-23T02:03:04;16.80;99.90
11304;DHT22;5707;49.588;12.148;2022-07-23T02:05:44;16.80;99.90
11304;DHT22;5707;49.588;12.148;2022-07-23T02:08:24;16.80;99.90
11304;DHT22;5707;49.588;12.148;2022-07-23T02:11:03;16.80;99.90
11304;DHT22;5707;49.588;12.148;2022-07-23T02:13:45;16.70;99.90
11304;DHT22;5707;49.588;12.148;2022-07-23T02:16:25;16.70;99.90
11304;DHT22;5707;49.588;12.148;2022-07-23T02:19:05;16.70;99.90
11304;DHT22;5707;49.588;12.148;2022-07-23T02:21:44;16.70;99.90
11304;DHT22;5707;49.588;12.148;2022-07-23T02:24:24;16.70;99.90
11304;DHT22;5707;49.588;12.148;2022-07-23T02:27:06;16.70;99.90
11304;DHT22;5707;49.588;12.148;2022-07-23T02:29:47;16.80;99.90
11304;DHT22;5707;49.588;12.148;2022-07-23T02:32:27;16.70;99.90
11304;DHT22;5707;49.588;12.148;2022-07-23T02:35:07;16.80;99.90
11304;DHT22;5707;49.588;12.148;2022-07-23T02:37:47;16.80;99.90
11304;DHT22;5707;49.588;12.148;2022-07-23T02:40:26;16.80;99.90
11304;DHT22;5707;49.588;12.148;2022-07-23T02:43:06;16.80;99.90
11304;DHT22;5707;49.588;12.148;2022-07-23T02:45:46;16.80;99.90
11304;DHT22;5707;49.588;12.148;2022-07-23T02:48:26;16.80;99.90
11304;DHT22;5707;49.588;12.148;2022-07-23T02:51:06;16.90;99.90
11304;DHT22;5707;49.588;12.148;2022-07-23T02:53:50;16.90;99.90
11304;DHT22;5707;49.588;12.148;2022-07-23T02:56:30;17.00;99.90
11304;DHT22;5707;49.588;12.148;2022-07-23T02:59:10;17.00;99.90
11304;DHT22;5707;49.588;12.148;2022-07-23T03:01:50;17.00;99.90
11304;DHT22;5707;49.588;12.148;2022-07-23T03:04:31;17.10;99.90
11304;DHT22;5707;49.588;12.148;2022-07-23T03:07:11;17.20;99.90
11304;DHT22;5707;49.588;12.148;2022-07-23T03:09:51;17.20;99.90
11304;DHT22;5707;49.588;12.148;2022-07-23T03:12:31;17.30;99.90
11304;DHT22;5707;49.588;12.148;2022-07-23T03:15:11;17.30;99.90
11304;DHT22;5707;49.588;12.148;2022-07-23T03:17:50;17.30;99.90
11304;DHT22;5707;49.588;12.148;2022-07-23T03:20:30;17.30;99.90
11304;DHT22;5707;49.588;12.148;2022-07-23T03:23:10;17.30;99.90
11304;DHT22;5707;49.588;12.148;2022-07-23T03:25:50;17.20;99.90
11304;DHT22;5707;49.588;12.148;2022-07-23T03:28:30;17.20;99.90
11304;DHT22;5707;49.588;12.148;2022-07-23T03:31:10;17.20;99.90
11304;DHT22;5707;49.588;12.148;2022-07-23T03:33:51;17.20;99.90
11304;DHT22;5707;49.588;12.148;2022-07-23T03:36:31;17.40;99.90
11304;DHT22;5707;49.588;12.148;2022-07-23T03:39:11;17.60;99.90
11304;DHT22;5707;49.588;12.148;2022-07-23T03:41:50;17.90;99.90
11304;DHT22;5707;49.588;12.148;2022-07-23T03:44:30;18.10;99.90
11304;DHT22;5707;49.588;12.148;2022-07-23T03:47:10;18.30;99.90
11304;DHT22;5707;49.588;12.148;2022-07-23T03:49:50;18.40;99.90
11304;DHT22;5707;49.588;12.148;2022-07-23T03:52:30;18.60;99.90
11304;DHT22;5707;49.588;12.148;2022-07-23T03:55:10;18.70;99.90
11304;DHT22;5707;49.588;12.148;2022-07-23T03:57:49;18.90;99.90
11304;DHT22;5707;49.588;12.148;2022-07-23T04:00:29;19.00;99.90
11304;DHT22;5707;49.588;12.148;2022-07-23T04:03:09;19.10;99.90
11304;DHT22;5707;49.588;12.148;2022-07-23T04:05:50;19.20;99.90
11304;DHT22;5707;49.588;12.148;2022-07-23T04:08:30;19.30;99.90
11304;DHT22;5707;49.588;12.148;2022-07-23T04:11:12;19.30;99.90
11304;DHT22;5707;49.588;12.148;2022-07-23T04:13:52;19.40;99.90
11304;DHT22;5707;49.588;12.148;2022-07-23T04:16:33;19.30;99.90
11304;DHT22;5707;49.588;12.148;2022-07-23T04:19:13;19.30;99.90
11304;DHT22;5707;49.588;12.148;2022-07-23T04:22:19;19.30;99.90
11304;DHT22;5707;49.588;12.148;2022-07-23T04:24:59;19.30;99.90
11304;DHT22;5707;49.588;12.148;2022-07-23T04:27:38;19.40;99.90
11304;DHT22;5707;49.588;12.148;2022-07-23T04:30:18;19.40;99.90
11304;DHT22;5707;49.588;12.148;2022-07-23T04:32:58;19.50;99.90
11304;DHT22;5707;49.588;12.148;2022-07-23T04:35:41;19.50;99.90
11304;DHT22;5707;49.588;12.148;2022-07-23T04:38:26;19.50;99.90
11304;DHT22;5707;49.588;12.148;2022-07-23T04:41:10;19.50;99.90
11304;DHT22;5707;49.588;12.148;2022-07-23T04:43:52;19.60;99.90
11304;DHT22;5707;49.588;12.148;2022-07-23T04:46:32;19.60;99.90
11304;DHT22;5707;49.588;12.148;2022-07-23T04:49:12;19.60;99.90
11304;DHT22;5707;49.588;12.148;2022-07-23T04:51:51;19.60;99.90
11304;DHT22;5707;49.588;12.148;2022-07-23T04:54:31;19.50;99.90
11304;DHT22;5707;49.588;12.148;2022-07-23T04:57:11;19.60;99.90
11304;DHT22;5707;49.588;12.148;2022-07-23T04:59:51;19.60;99.90
11304;DHT22;5707;49.588;12.148;2022-07-23T05:02:32;19.60;99.90
11304;DHT22;5707;49.588;12.148;2022-07-23T05:05:12;19.60;99.90
11304;DHT22;5707;49.588;12.148;2022-07-23T05:07:54;19.60;99.90
11304;DHT22;5707;49.588;12.148;2022-07-23T05:10:33;19.60;99.90
11304;DHT22;5707;49.588;12.148;2022-07-23T05:13:15;19.70;99.90
11304;DHT22;5707;49.588;12.148;2022-07-23T05:15:55;19.70;99.90
11304;DHT22;5707;49.588;12.148;2022-07-23T05:18:36;19.80;99.90
11304;DHT22;5707;49.588;12.148;2022-07-23T05:21:16;19.90;99.90
11304;DHT22;5707;49.588;12.148;2022-07-23T05:23:56;20.10;99.90
11304;DHT22;5707;49.588;12.148;2022-07-23T05:26:36;20.20;99.90
11304;DHT22;5707;49.588;12.148;2022-07-23T05:29:17;20.50;99.90
11304;DHT22;5707;49.588;12.148;2022-07-23T05:31:58;20.70;99.90
11304;DHT22;5707;49.588;12.148;2022-07-23T05:34:40;21.00;99.90
11304;DHT22;5707;49.588;12.148;2022-07-23T05:37:20;21.40;99.90
11304;DHT22;5707;49.588;12.148;2022-07-23T05:40:02;21.60;99.90
11304;DHT22;5707;49.588;12.148;2022-07-23T05:42:43;21.80;99.90
11304;DHT22;5707;49.588;12.148;2022-07-23T05:45:24;21.90;99.90
11304;DHT22;5707;49.588;12.148;2022-07-23T05:48:04;22.10;99.90
11304;DHT22;5707;49.588;12.148;2022-07-23T05:50:50;22.30;99.90
11304;DHT22;5707;49.588;12.148;2022-07-23T05:53:41;22.30;99.90
11304;DHT22;5707;49.588;12.148;2022-07-23T05:56:26;22.40;99.90
11304;DHT22;5707;49.588;12.148;2022-07-23T05:59:05;22.40;99.90
11304;DHT22;5707;49.588;12.148;2022-07-23T06:01:45;22.40;99.90
11304;DHT22;5707;49.588;12.148;2022-07-23T06:04:25;22.70;99.90
11304;DHT22;5707;49.588;12.148;2022-07-23T06:07:26;22.80;99.90
11304;DHT22;5707;49.588;12.148;2022-07-23T06:10:06;23.00;99.90
11304;DHT22;5707;49.588;12.148;2022-07-23T06:12:47;23.10;99.90
11304;DHT22;5707;49.588;12.148;2022-07-23T06:15:27;23.20;99.90
11304;DHT22;5707;49.588;12.148;2022-07-23T06:18:07;23.50;99.90
11304;DHT22;5707;49.588;12.148;2022-07-23T06:20:46;23.80;99.90
11304;DHT22;5707;49.588;12.148;2022-07-23T06:23:26;23.90;99.90
11304;DHT22;5707;49.588;12.148;2022-07-23T06:26:06;24.00;99.90
11304;DHT22;5707;49.588;12.148;2022-07-23T06:28:46;24.10;99.90
11304;DHT22;5707;49.588;12.148;2022-07-23T06:31:26;24.30;99.90
11304;DHT22;5707;49.588;12.148;2022-07-23T06:34:06;24.40;99.90
11304;DHT22;5707;49.588;12.148;2022-07-23T06:36:49;24.50;99.90
11304;DHT22;5707;49.588;12.148;2022-07-23T06:39:28;24.70;99.90
11304;DHT22;5707;49.588;12.148;2022-07-23T06:42:10;24.90;99.90
11304;DHT22;5707;49.588;12.148;2022-07-23T06:44:56;24.90;99.90
11304;DHT22;5707;49.588;12.148;2022-07-23T06:47:36;24.90;99.90
11304;DHT22;5707;49.588;12.148;2022-07-23T06:50:17;25.00;99.90
11304;DHT22;5707;49.588;12.148;2022-07-23T06:52:57;25.10;99.90
11304;DHT22;5707;49.588;12.148;2022-07-23T06:55:39;25.40;99.90
11304;DHT22;5707;49.588;12.148;2022-07-23T06:58:18;25.50;99.90
11304;DHT22;5707;49.588;12.148;2022-07-23T07:00:58;25.70;99.90
11304;DHT22;5707;49.588;12.148;2022-07-23T07:03:38;25.90;99.90
11304;DHT22;5707;49.588;12.148;2022-07-23T07:06:18;26.00;99.90
11304;DHT22;5707;49.588;12.148;2022-07-23T07:08:58;26.00;99.90
11304;DHT22;5707;49.588;12.148;2022-07-23T07:11:38;25.90;99.90
11304;DHT22;5707;49.588;12.148;2022-07-23T07:14:18;25.90;99.90
11304;DHT22;5707;49.588;12.148;2022-07-23T07:16:59;26.00;99.90
11304;DHT22;5707;49.588;12.148;2022-07-23T07:19:39;26.00;99.90
11304;DHT22;5707;49.588;12.148;2022-07-23T07:22:19;26.10;99.90
11304;DHT22;5707;49.588;12.148;2022-07-23T07:24:58;26.20;99.90
11304;DHT22;5707;49.588;12.148;2022-07-23T07:27:38;26.20;99.90
11304;DHT22;5707;49.588;12.148;2022-07-23T07:30:18;26.00;99.90
11304;DHT22;5707;49.588;12.148;2022-07-23T07:32:58;26.00;99.90
11304;DHT22;5707;49.588;12.148;2022-07-23T07:35:38;26.20;99.90
11304;DHT22;5707;49.588;12.148;2022-07-23T07:38:17;26.30;99.90
11304;DHT22;5707;49.588;12.148;2022-07-23T07:40:57;26.50;99.60
11304;DHT22;5707;49.588;12.148;2022-07-23T07:43:37;26.60;99.70
11304;DHT22;5707;49.588;12.148;2022-07-23T07:46:17;26.60;98.90
11304;DHT22;5707;49.588;12.148;2022-07-23T07:48:57;26.80;99.90
11304;DHT22;5707;49.588;12.148;2022-07-23T07:51:37;26.80;99.90
11304;DHT22;5707;49.588;12.148;2022-07-23T07:54:16;26.90;99.90
11304;DHT22;5707;49.588;12.148;2022-07-23T07:56:56;26.90;99.50
11304;DHT22;5707;49.588;12.148;2022-07-23T07:59:36;26.90;99.90
11304;DHT22;5707;49.588;12.148;2022-07-23T08:02:16;27.10;99.90
11304;DHT22;5707;49.588;12.148;2022-07-23T08:04:56;27.40;98.00
11304;DHT22;5707;49.588;12.148;2022-07-23T08:07:36;27.70;95.10
11304;DHT22;5707;49.588;12.148;2022-07-23T08:10:17;28.00;95.20
11304;DHT22;5707;49.588;12.148;2022-07-23T08:12:59;28.20;91.70
11304;DHT22;5707;49.588;12.148;2022-07-23T08:15:40;28.30;90.40
11304;DHT22;5707;49.588;12.148;2022-07-23T08:18:20;28.50;91.60
11304;DHT22;5707;49.588;12.148;2022-07-23T08:21:00;28.80;86.80
11304;DHT22;5707;49.588;12.148;2022-07-23T08:23:39;29.20;87.30
11304;DHT22;5707;49.588;12.148;2022-07-23T08:26:19;29.50;78.50
11304;DHT22;5707;49.588;12.148;2022-07-23T08:28:59;29.70;76.40
11304;DHT22;5707;49.588;12.148;2022-07-23T08:31:39;29.50;74.20
11304;DHT22;5707;49.588;12.148;2022-07-23T08:34:19;29.30;72.60
11304;DHT22;5707;49.588;12.148;2022-07-23T08:36:59;29.20;72.10
11304;DHT22;5707;49.588;12.148;2022-07-23T08:39:38;29.50;74.80
11304;DHT22;5707;49.588;12.148;2022-07-23T08:42:18;29.80;73.00
11304;DHT22;5707;49.588;12.148;2022-07-23T08:45:00;29.80;68.90
11304;DHT22;5707;49.588;12.148;2022-07-23T08:47:39;29.80;71.60
11304;DHT22;5707;49.588;12.148;2022-07-23T08:50:19;29.90;66.10
11304;DHT22;5707;49.588;12.148;2022-07-23T08:52:59;30.20;63.70
11304;DHT22;5707;49.588;12.148;2022-07-23T08:55:41;30.40;61.10
11304;DHT22;5707;49.588;12.148;2022-07-23T08:58:22;30.30;58.80
11304;DHT22;5707;49.588;12.148;2022-07-23T09:01:02;30.20;59.00
11304;DHT22;5707;49.588;12.148;2022-07-23T09:03:42;30.10;59.90
11304;DHT22;5707;49.588;12.148;2022-07-23T09:06:23;30.20;59.10
11304;DHT22;5707;49.588;12.148;2022-07-23T09:09:17;30.10;58.90
11304;DHT22;5707;49.588;12.148;2022-07-23T09:12:04;29.80;59.70
11304;DHT22;5707;49.588;12.148;2022-07-23T09:14:45;29.50;60.00
11304;DHT22;5707;49.588;12.148;2022-07-23T09:17:25;29.40;58.90
11304;DHT22;5707;49.588;12.148;2022-07-23T09:20:12;29.60;60.30
11304;DHT22;5707;49.588;12.148;2022-07-23T09:22:52;30.20;59.70
11304;DHT22;5707;49.588;12.148;2022-07-23T09:25:32;30.90;57.10
11304;DHT22;5707;49.588;12.148;2022-07-23T09:28:12;31.50;56.10
11304;DHT22;5707;49.588;12.148;2022-07-23T09:30:52;31.50;53.20
11304;DHT22;5707;49.588;12.148;2022-07-23T09:33:32;31.30;51.00
11304;DHT22;5707;49.588;12.148;2022-07-23T09:36:12;31.30;51.10
11304;DHT22;5707;49.588;12.148;2022-07-23T09:38:51;31.40;49.00
11304;DHT22;5707;49.588;12.148;2022-07-23T09:41:35;30.90;47.60
11304;DHT22;5707;49.588;12.148;2022-07-23T09:44:17;30.50;49.20
11304;DHT22;5707;49.588;12.148;2022-07-23T09:47:00;30.10;50.50
11304;DHT22;5707;49.588;12.148;2022-07-23T09:49:41;30.00;51.60
11304;DHT22;5707;49.588;12.148;2022-07-23T09:52:41;30.30;50.90
11304;DHT22;5707;49.588;12.148;2022-07-23T09:55:27;30.20;52.50
11304;DHT22;5707;49.588;12.148;2022-07-23T09:58:10;29.50;53.50
11304;DHT22;5707;49.588;12.148;2022-07-23T10:00:52;28.30;54.30
11304;DHT22;5707;49.588;12.148;2022-07-23T10:03:31;27.00;57.50
11304;DHT22;5707;49.588;12.148;2022-07-23T10:06:31;26.30;61.60
11304;DHT22;5707;49.588;12.148;2022-07-23T10:09:30;25.80;63.00
11304;DHT22;5707;49.588;12.148;2022-07-23T10:12:44;25.50;71.20
11304;DHT22;5707;49.588;12.148;2022-07-23T10:15:42;25.30;78.20
11304;DHT22;5707;49.588;12.148;2022-07-23T10:18:22;25.00;99.90
11304;DHT22;5707;49.588;12.148;2022-07-23T10:21:02;24.80;98.60
11304;DHT22;5707;49.588;12.148;2022-07-23T10:23:45;24.60;97.70
11304;DHT22;5707;49.588;12.148;2022-07-23T10:26:29;24.50;98.50
11304;DHT22;5707;49.588;12.148;2022-07-23T10:29:17;24.20;99.90
11304;DHT22;5707;49.588;12.148;2022-07-23T10:32:00;23.90;99.90
11304;DHT22;5707;49.588;12.148;2022-07-23T10:34:44;23.60;99.90
11304;DHT22;5707;49.588;12.148;2022-07-23T10:37:25;23.40;99.90
11304;DHT22;5707;49.588;12.148;2022-07-23T10:40:12;23.00;99.90
11304;DHT22;5707;49.588;12.148;2022-07-23T10:42:52;22.60;99.90
11304;DHT22;5707;49.588;12.148;2022-07-23T10:45:34;22.40;99.90
11304;DHT22;5707;49.588;12.148;2022-07-23T10:48:16;22.10;99.90
11304;DHT22;5707;49.588;12.148;2022-07-23T10:53:56;21.80;99.90
11304;DHT22;5707;49.588;12.148;2022-07-23T10:57:05;21.80;99.90
11304;DHT22;5707;49.588;12.148;2022-07-23T11:02:45;21.70;99.90
11304;DHT22;5707;49.588;12.148;2022-07-23T11:05:27;21.70;99.90
11304;DHT22;5707;49.588;12.148;2022-07-23T11:08:19;21.90;99.90
11304;DHT22;5707;49.588;12.148;2022-07-23T11:11:10;22.00;99.90
11304;DHT22;5707;49.588;12.148;2022-07-23T11:13:51;22.10;99.90
11304;DHT22;5707;49.588;12.148;2022-07-23T11:16:41;22.40;99.90
11304;DHT22;5707;49.588;12.148;2022-07-23T11:19:27;22.70;99.90
11304;DHT22;5707;49.588;12.148;2022-07-23T11:22:07;23.00;99.90
11304;DHT22;5707;49.588;12.148;2022-07-23T11:24:51;23.20;99.90
11304;DHT22;5707;49.588;12.148;2022-07-23T11:27:37;23.60;99.90
11304;DHT22;5707;49.588;12.148;2022-07-23T11:33:18;24.10;99.90
11304;DHT22;5707;49.588;12.148;2022-07-23T11:36:02;24.60;99.90
11304;DHT22;5707;49.588;12.148;2022-07-23T11:38:42;25.20;99.90
11304;DHT22;5707;49.588;12.148;2022-07-23T11:41:24;25.60;99.90
11304;DHT22;5707;49.588;12.148;2022-07-23T11:44:04;26.00;99.90
11304;DHT22;5707;49.588;12.148;2022-07-23T11:46:55;26.10;99.90
11304;DHT22;5707;49.588;12.148;2022-07-23T11:49:35;26.10;99.90
11304;DHT22;5707;49.588;12.148;2022-07-23T11:52:16;26.00;99.90
11304;DHT22;5707;49.588;12.148;2022-07-23T11:54:57;26.00;99.90
11304;DHT22;5707;49.588;12.148;2022-07-23T11:57:38;26.30;99.90
11304;DHT22;5707;49.588;12.148;2022-07-23T12:00:19;26.00;99.90
11304;DHT22;5707;49.588;12.148;2022-07-23T12:03:01;25.70;99.90
11304;DHT22;5707;49.588;12.148;2022-07-23T12:05:41;25.50;99.90
11304;DHT22;5707;49.588;12.148;2022-07-23T12:08:21;25.20;99.90
11304;DHT22;5707;49.588;12.148;2022-07-23T12:11:01;25.10;99.90
11304;DHT22;5707;49.588;12.148;2022-07-23T12:13:41;25.00;99.90
11304;DHT22;5707;49.588;12.148;2022-07-23T12:16:21;25.10;99.90
11304;DHT22;5707;49.588;12.148;2022-07-23T12:19:01;25.00;99.90
11304;DHT22;5707;49.588;12.148;2022-07-23T12:21:40;24.80;99.90
11304;DHT22;5707;49.588;12.148;2022-07-23T12:24:20;24.90;99.90
11304;DHT22;5707;49.588;12.148;2022-07-23T12:27:09;24.90;99.90
11304;DHT22;5707;49.588;12.148;2022-07-23T12:29:50;24.90;99.90
11304;DHT22;5707;49.588;12.148;2022-07-23T12:32:29;24.70;99.90
11304;DHT22;5707;49.588;12.148;2022-07-23T12:35:09;24.80;99.90
11304;DHT22;5707;49.588;12.148;2022-07-23T12:37:49;25.20;99.90
11304;DHT22;5707;49.588;12.148;2022-07-23T12:40:31;25.80;99.90
11304;DHT22;5707;49.588;12.148;2022-07-23T12:43:21;26.70;99.90
11304;DHT22;5707;49.588;12.148;2022-07-23T12:46:04;27.70;97.80
11304;DHT22;5707;49.588;12.148;2022-07-23T12:48:51;28.40;98.10
11304;DHT22;5707;49.588;12.148;2022-07-23T12:51:31;28.50;85.10
11304;DHT22;5707;49.588;12.148;2022-07-23T12:54:12;28.50;75.10
11304;DHT22;5707;49.588;12.148;2022-07-23T12:56:52;28.50;72.40
11304;DHT22;5707;49.588;12.148;2022-07-23T12:59:32;28.50;72.70
11304;DHT22;5707;49.588;12.148;2022-07-23T13:02:11;29.00;70.40
11304;DHT22;5707;49.588;12.148;2022-07-23T13:04:53;29.50;67.10
11304;DHT22;5707;49.588;12.148;2022-07-23T13:07:33;30.00;65.40
11304;DHT22;5707;49.588;12.148;2022-07-23T13:10:13;30.10;62.50
11304;DHT22;5707;49.588;12.148;2022-07-23T13:12:52;30.00;61.60
11304;DHT22;5707;49.588;12.148;2022-07-23T13:15:32;29.90;61.40
11304;DHT22;5707;49.588;12.148;2022-07-23T13:18:12;29.50;60.00
11304;DHT22;5707;49.588;12.148;2022-07-23T13:20:52;29.10;63.70
11304;DHT22;5707;49.588;12.148;2022-07-23T13:23:32;29.10;60.30
11304;DHT22;5707;49.588;12.148;2022-07-23T13:26:12;28.90;62.10
11304;DHT22;5707;49.588;12.148;2022-07-23T13:28:51;28.80;66.80
11304;DHT22;5707;49.588;12.148;2022-07-23T13:31:31;28.60;60.70
11304;DHT22;5707;49.588;12.148;2022-07-23T13:34:11;28.50;60.20
11304;DHT22;5707;49.588;12.148;2022-07-23T13:36:51;28.80;59.70
11304;DHT22;5707;49.588;12.148;2022-07-23T13:39:31;28.90;55.00
11304;DHT22;5707;49.588;12.148;2022-07-23T13:42:10;29.20;56.20
11304;DHT22;5707;49.588;12.148;2022-07-23T13:44:50;29.80;54.60
11304;DHT22;5707;49.588;12.148;2022-07-23T13:47:30;30.20;52.60
11304;DHT22;5707;49.588;12.148;2022-07-23T13:50:10;30.60;48.80
11304;DHT22;5707;49.588;12.148;2022-07-23T13:52:50;30.70;48.50
11304;DHT22;5707;49.588;12.148;2022-07-23T13:55:30;30.50;46.30
11304;DHT22;5707;49.588;12.148;2022-07-23T13:58:10;30.30;46.70
11304;DHT22;5707;49.588;12.148;2022-07-23T14:00:51;30.30;49.30
11304;DHT22;5707;49.588;12.148;2022-07-23T14:03:32;30.50;46.70
11304;DHT22;5707;49.588;12.148;2022-07-23T14:06:12;30.60;47.60
11304;DHT22;5707;49.588;12.148;2022-07-23T14:08:52;30.60;47.20
11304;DHT22;5707;49.588;12.148;2022-07-23T14:11:32;30.40;47.30
11304;DHT22;5707;49.588;12.148;2022-07-23T14:14:12;30.70;48.90
11304;DHT22;5707;49.588;12.148;2022-07-23T14:16:51;30.80;47.80
11304;DHT22;5707;49.588;12.148;2022-07-23T14:19:31;30.90;47.00
11304;DHT22;5707;49.588;12.148;2022-07-23T14:22:11;30.90;46.70
11304;DHT22;5707;49.588;12.148;2022-07-23T14:24:51;30.80;47.60
11304;DHT22;5707;49.588;12.148;2022-07-23T14:27:31;31.10;46.70
11304;DHT22;5707;49.588;12.148;2022-07-23T14:30:11;31.50;45.00
11304;DHT22;5707;49.588;12.148;2022-07-23T14:32:54;31.60;44.10
11304;DHT22;5707;49.588;12.148;2022-07-23T14:35:33;31.40;44.10
11304;DHT22;5707;49.588;12.148;2022-07-23T14:38:13;31.00;46.50
11304;DHT22;5707;49.588;12.148;2022-07-23T14:40:53;30.70;45.80
11304;DHT22;5707;49.588;12.148;2022-07-23T14:43:33;30.70;46.30
11304;DHT22;5707;49.588;12.148;2022-07-23T14:46:13;30.90;46.10
11304;DHT22;5707;49.588;12.148;2022-07-23T14:48:53;31.20;45.60
11304;DHT22;5707;49.588;12.148;2022-07-23T14:51:32;31.30;45.20
11304;DHT22;5707;49.588;12.148;2022-07-23T14:54:13;31.60;43.40
11304;DHT22;5707;49.588;12.148;2022-07-23T14:56:54;31.60;43.60
11304;DHT22;5707;49.588;12.148;2022-07-23T14:59:34;31.30;43.80
11304;DHT22;5707;49.588;12.148;2022-07-23T15:02:13;30.60;42.70
11304;DHT22;5707;49.588;12.148;2022-07-23T15:04:53;30.00;45.00
11304;DHT22;5707;49.588;12.148;2022-07-23T15:07:33;29.60;47.30
11304;DHT22;5707;49.588;12.148;2022-07-23T15:10:14;29.60;45.90
11304;DHT22;5707;49.588;12.148;2022-07-23T15:12:54;30.10;46.00
11304;DHT22;5707;49.588;12.148;2022-07-23T15:15:34;30.30;46.00
11304;DHT22;5707;49.588;12.148;2022-07-23T15:18:14;30.30;47.90
11304;DHT22;5707;49.588;12.148;2022-07-23T15:20:55;30.50;46.40
11304;DHT22;5707;49.588;12.148;2022-07-23T15:23:35;30.50;48.20
11304;DHT22;5707;49.588;12.148;2022-07-23T15:26:18;30.50;47.20
11304;DHT22;5707;49.588;12.148;2022-07-23T15:28:58;30.40;48.60
11304;DHT22;5707;49.588;12.148;2022-07-23T15:31:39;30.30;48.10
11304;DHT22;5707;49.588;12.148;2022-07-23T15:34:19;30.30;49.30
11304;DHT22;5707;49.588;12.148;2022-07-23T15:37:00;30.30;49.20
11304;DHT22;5707;49.588;12.148;2022-07-23T15:39:41;30.60;51.90
11304;DHT22;5707;49.588;12.148;2022-07-23T15:42:20;30.90;48.80
11304;DHT22;5707;49.588;12.148;2022-07-23T15:45:00;31.00;48.40
11304;DHT22;5707;49.588;12.148;2022-07-23T15:47:40;30.70;50.70
11304;DHT22;5707;49.588;12.148;2022-07-23T15:50:20;30.60;50.00
11304;DHT22;5707;49.588;12.148;2022-07-23T15:53:00;30.80;48.70
11304;DHT22;5707;49.588;12.148;2022-07-23T15:55:40;30.90;49.80
11304;DHT22;5707;49.588;12.148;2022-07-23T15:58:23;31.80;46.90
11304;DHT22;5707;49.588;12.148;2022-07-23T16:01:03;33.40;45.50
11304;DHT22;5707;49.588;12.148;2022-07-23T16:03:45;34.80;43.70
11304;DHT22;5707;49.588;12.148;2022-07-23T16:06:25;34.70;42.30
11304;DHT22;5707;49.588;12.148;2022-07-23T16:09:05;34.30;42.30
11304;DHT22;5707;49.588;12.148;2022-07-23T16:11:45;33.70;43.20
11304;DHT22;5707;49.588;12.148;2022-07-23T16:14:25;32.60;43.90
11304;DHT22;5707;49.588;12.148;2022-07-23T16:17:05;31.30;46.90
11304;DHT22;5707;49.588;12.148;2022-07-23T16:19:44;30.40;49.10
11304;DHT22;5707;49.588;12.148;2022-07-23T16:22:24;30.10;49.90
11304;DHT22;5707;49.588;12.148;2022-07-23T16:25:05;30.40;48.90
11304;DHT22;5707;49.588;12.148;2022-07-23T16:27:45;30.30;49.80
11304;DHT22;5707;49.588;12.148;2022-07-23T16:30:25;30.50;50.00
11304;DHT22;5707;49.588;12.148;2022-07-23T16:33:05;30.60;49.90
11304;DHT22;5707;49.588;12.148;2022-07-23T16:35:45;30.40;49.50
11304;DHT22;5707;49.588;12.148;2022-07-23T16:38:25;29.50;51.80
11304;DHT22;5707;49.588;12.148;2022-07-23T16:41:05;29.00;53.10
11304;DHT22;5707;49.588;12.148;2022-07-23T16:43:44;28.50;55.50
11304;DHT22;5707;49.588;12.148;2022-07-23T16:46:24;28.00;55.90
11304;DHT22;5707;49.588;12.148;2022-07-23T16:49:04;27.60;57.00
11304;DHT22;5707;49.588;12.148;2022-07-23T16:51:44;27.10;55.50
11304;DHT22;5707;49.588;12.148;2022-07-23T16:54:24;26.90;55.70
11304;DHT22;5707;49.588;12.148;2022-07-23T16:57:04;26.90;57.20
11304;DHT22;5707;49.588;12.148;2022-07-23T16:59:43;26.80;57.20
11304;DHT22;5707;49.588;12.148;2022-07-23T17:02:23;26.70;57.80
11304;DHT22;5707;49.588;12.148;2022-07-23T17:05:03;26.70;58.20
11304;DHT22;5707;49.588;12.148;2022-07-23T17:07:44;26.70;59.60